createdAt,value
2022-12-22T00:00:34.521Z,45.42
2022-12-22T00:03:20.513Z,45.19
2022-12-22T00:06:07.836Z,45.63
2022-12-22T00:08:53.642Z,45.19
2022-12-22T00:11:40.026Z,45.20
2022-12-22T00:14:27.531Z,45.40
2022-12-22T00:17:13.915Z,45.29
2022-12-22T00:19:59.984Z,45.67
2022-12-22T00:22:47.174Z,45.48
2022-12-22T00:25:34.581Z,45.14
2022-12-22T00:28:20.776Z,45.57
2022-12-22T00:31:07.145Z,45.29
2022-12-22T00:33:52.929Z,45.43
2022-12-22T00:36:39.369Z,45.84
2022-12-22T00:39:31.118Z,45.21
2022-12-22T00:42:17.083Z,45.30
2022-12-22T00:45:03.155Z,45.78
2022-12-22T00:47:49.675Z,45.19
2022-12-22T00:50:36.097Z,44.95
2022-12-22T00:53:22.970Z,45.40
2022-12-22T00:56:10.175Z,45.57
2022-12-22T00:58:56.158Z,45.54
2022-12-22T01:01:42.520Z,45.48
2022-12-22T01:04:29.066Z,45.62
2022-12-22T01:07:15.348Z,45.36
2022-12-22T01:10:05.284Z,45.51
2022-12-22T01:12:53.509Z,45.54
2022-12-22T01:15:39.583Z,45.36
2022-12-22T01:18:25.969Z,45.72
2022-12-22T01:21:12.480Z,45.46
2022-12-22T01:23:59.446Z,45.14
2022-12-22T01:26:45.713Z,45.75
2022-12-22T01:29:33.042Z,45.74
2022-12-22T01:32:19.111Z,45.56
2022-12-22T01:35:04.960Z,45.78
2022-12-22T01:37:50.748Z,45.14
2022-12-22T01:40:39.649Z,45.60
2022-12-22T01:43:37.570Z,45.22
2022-12-22T01:46:43.827Z,45.71
2022-12-22T01:49:32.637Z,45.72
2022-12-22T01:52:19.469Z,45.27
2022-12-22T01:55:05.871Z,45.73
2022-12-22T01:57:52.420Z,45.32
2022-12-22T02:00:38.726Z,45.21
2022-12-22T02:03:34.930Z,45.61
2022-12-22T02:06:36.269Z,45.54
2022-12-22T02:09:36.245Z,45.42
2022-12-22T02:12:29.263Z,45.77
2022-12-22T02:15:20.831Z,45.69
2022-12-22T02:18:13.278Z,45.20
2022-12-22T02:21:02.132Z,45.69
2022-12-22T02:24:04.098Z,45.31
2022-12-22T02:26:53.215Z,45.61
2022-12-22T02:29:41.700Z,45.57
2022-12-22T02:32:27.598Z,45.21
2022-12-22T02:35:13.337Z,45.24
2022-12-22T02:38:05.765Z,45.70
2022-12-22T02:40:57.556Z,45.28
2022-12-22T02:43:58.251Z,45.68
2022-12-22T02:46:47.747Z,45.88
2022-12-22T02:49:36.923Z,45.61
2022-12-22T02:52:27.713Z,45.74
2022-12-22T02:55:13.640Z,45.80
2022-12-22T02:57:59.831Z,45.31
2022-12-22T03:00:46.813Z,45.48
2022-12-22T03:03:33.009Z,45.87
2022-12-22T03:06:19.311Z,45.83
2022-12-22T03:09:05.234Z,45.43
2022-12-22T03:11:51.124Z,45.37
2022-12-22T03:14:36.999Z,45.69
2022-12-22T03:17:24.013Z,45.82
2022-12-22T03:20:10.039Z,45.51
2022-12-22T03:22:55.761Z,45.57
2022-12-22T03:25:41.778Z,45.88
2022-12-22T03:28:11.441Z,45.73
2022-12-22T03:30:40.055Z,45.74
2022-12-22T03:33:09.863Z,45.69
2022-12-22T03:35:38.378Z,45.67
2022-12-22T03:38:06.805Z,45.76
2022-12-22T03:40:35.238Z,45.75
2022-12-22T03:43:21.111Z,45.19
2022-12-22T03:46:12.203Z,45.64
2022-12-22T03:48:42.109Z,45.70
2022-12-22T03:51:11.016Z,45.73
2022-12-22T03:53:39.431Z,45.46
2022-12-22T03:56:08.611Z,45.35
2022-12-22T03:58:37.246Z,45.28
2022-12-22T04:01:06.711Z,45.28
2022-12-22T04:03:35.277Z,45.44
2022-12-22T04:06:05.300Z,45.73
2022-12-22T04:08:33.711Z,45.89
2022-12-22T04:11:19.592Z,45.62
2022-12-22T04:13:48.010Z,45.88
2022-12-22T04:16:16.531Z,45.61
2022-12-22T04:18:45.015Z,45.74
2022-12-22T04:21:14.845Z,45.31
2022-12-22T04:23:43.330Z,45.93
2022-12-22T04:26:11.782Z,45.32
2022-12-22T04:28:40.210Z,45.63
2022-12-22T04:31:08.669Z,45.89
2022-12-22T04:33:37.121Z,45.45
2022-12-22T04:36:06.346Z,45.74
2022-12-22T04:38:36.514Z,45.43
2022-12-22T04:41:05.277Z,45.72
2022-12-22T04:43:34.087Z,45.31
2022-12-22T04:46:02.605Z,45.48
2022-12-22T04:48:32.351Z,45.84
2022-12-22T04:51:01.815Z,45.48
2022-12-22T04:53:31.409Z,45.90
2022-12-22T04:56:02.296Z,45.80
2022-12-22T04:58:31.390Z,45.51
2022-12-22T05:01:09.668Z,45.44
2022-12-22T05:03:38.314Z,45.42
2022-12-22T05:06:07.493Z,45.80
2022-12-22T05:08:36.193Z,45.45
2022-12-22T05:11:06.389Z,45.41
2022-12-22T05:13:34.962Z,45.60
2022-12-22T05:16:07.305Z,45.67
2022-12-22T05:18:36.137Z,45.91
2022-12-22T05:21:07.154Z,45.67
2022-12-22T05:23:36.282Z,45.47
2022-12-22T05:26:06.689Z,45.92
2022-12-22T05:28:35.344Z,45.58
2022-12-22T05:31:05.249Z,45.96
2022-12-22T05:33:33.781Z,45.80
2022-12-22T05:36:02.802Z,45.36
2022-12-22T05:38:31.183Z,45.84
2022-12-22T05:41:03.819Z,45.46
2022-12-22T05:43:34.659Z,45.38
2022-12-22T05:46:04.072Z,45.37
2022-12-22T05:48:38.159Z,45.36
2022-12-22T05:51:08.431Z,45.69
2022-12-22T05:53:37.216Z,46.02
2022-12-22T05:56:06.262Z,45.77
2022-12-22T05:58:36.633Z,46.08
2022-12-22T06:01:05.797Z,45.55
2022-12-22T06:03:34.399Z,45.54
2022-12-22T06:06:03.615Z,45.49
2022-12-22T06:08:32.180Z,45.70
2022-12-22T06:11:01.009Z,45.45
2022-12-22T06:13:29.644Z,45.47
2022-12-22T06:15:59.535Z,45.65
2022-12-22T06:18:28.215Z,45.75
2022-12-22T06:20:56.583Z,45.96
2022-12-22T06:23:24.992Z,46.01
2022-12-22T06:25:57.211Z,45.96
2022-12-22T06:28:25.861Z,45.40
2022-12-22T06:30:54.643Z,45.86
2022-12-22T06:33:24.623Z,45.66
2022-12-22T06:35:58.723Z,45.47
2022-12-22T06:38:28.441Z,46.01
2022-12-22T06:40:57.382Z,46.14
2022-12-22T06:43:25.809Z,45.99
2022-12-22T06:45:54.359Z,45.75
2022-12-22T06:48:24.148Z,45.49
2022-12-22T06:50:52.625Z,45.90
2022-12-22T06:53:21.556Z,45.50
2022-12-22T06:55:50.051Z,45.47
2022-12-22T06:58:18.579Z,45.58
2022-12-22T07:00:48.575Z,45.98
2022-12-22T07:03:17.587Z,45.56
2022-12-22T07:05:47.431Z,45.91
2022-12-22T07:08:15.837Z,46.12
2022-12-22T07:10:59.279Z,46.02
2022-12-22T07:13:30.176Z,46.13
2022-12-22T07:16:01.102Z,46.14
2022-12-22T07:18:31.658Z,45.78
2022-12-22T07:21:03.403Z,46.15
2022-12-22T07:23:32.499Z,45.79
2022-12-22T07:26:01.018Z,45.71
2022-12-22T07:28:29.502Z,45.80
2022-12-22T07:30:58.141Z,45.95
2022-12-22T07:33:26.877Z,45.72
2022-12-22T07:36:07.792Z,45.83
2022-12-22T07:38:38.150Z,46.16
2022-12-22T07:41:27.925Z,46.02
2022-12-22T07:43:57.023Z,45.93
2022-12-22T07:46:28.685Z,45.82
2022-12-22T07:49:11.194Z,45.74
2022-12-22T07:51:42.291Z,46.23
2022-12-22T07:54:12.137Z,46.05
2022-12-22T07:56:41.869Z,45.86
2022-12-22T07:59:11.193Z,45.68
2022-12-22T08:01:40.275Z,46.17
2022-12-22T08:04:09.122Z,46.10
2022-12-22T08:06:37.759Z,45.99
2022-12-22T08:09:10.980Z,45.90
2022-12-22T08:11:40.216Z,45.78
2022-12-22T08:14:09.336Z,46.18
2022-12-22T08:16:38.264Z,46.29
2022-12-22T08:19:06.904Z,46.17
2022-12-22T08:21:35.342Z,45.87
2022-12-22T08:24:08.149Z,46.16
2022-12-22T08:26:39.166Z,46.21
2022-12-22T08:29:10.268Z,45.80
2022-12-22T08:31:39.917Z,46.22
2022-12-22T08:34:14.506Z,46.22
2022-12-22T08:36:45.470Z,46.43
2022-12-22T08:39:16.140Z,46.05
2022-12-22T08:41:53.670Z,46.03
2022-12-22T08:44:24.418Z,46.41
2022-12-22T08:46:54.408Z,46.28
2022-12-22T08:49:23.466Z,45.89
2022-12-22T08:51:52.191Z,46.10
2022-12-22T08:54:22.588Z,46.26
2022-12-22T08:56:51.387Z,46.51
2022-12-22T08:59:19.983Z,46.58
2022-12-22T09:01:51.201Z,46.55
2022-12-22T09:04:21.324Z,46.54
2022-12-22T09:06:52.589Z,46.21
2022-12-22T09:09:22.710Z,46.22
2022-12-22T09:11:51.807Z,46.51
2022-12-22T09:14:20.475Z,46.42
2022-12-22T09:16:50.465Z,46.45
2022-12-22T09:19:19.108Z,46.66
2022-12-22T09:21:47.620Z,46.42
2022-12-22T09:24:16.293Z,47.72
2022-12-22T09:26:46.086Z,47.54
2022-12-22T09:29:15.929Z,47.60
2022-12-22T09:31:44.916Z,48.57
2022-12-22T09:34:17.936Z,48.26
2022-12-22T09:36:47.855Z,48.03
2022-12-22T09:39:17.055Z,47.61
2022-12-22T09:41:49.458Z,47.72
2022-12-22T09:44:25.342Z,47.64
2022-12-22T09:46:54.666Z,47.47
2022-12-22T09:49:23.780Z,47.58
2022-12-22T09:51:54.007Z,47.46
2022-12-22T09:54:23.567Z,47.72
2022-12-22T09:56:53.416Z,47.81
2022-12-22T09:59:22.951Z,48.05
2022-12-22T10:02:01.472Z,48.59
2022-12-22T10:04:40.291Z,47.56
2022-12-22T10:07:18.319Z,47.47
2022-12-22T10:09:50.296Z,47.92
2022-12-22T10:12:23.017Z,47.52
2022-12-22T10:14:52.665Z,47.58
2022-12-22T10:17:24.363Z,47.67
2022-12-22T10:19:54.722Z,47.39
2022-12-22T10:22:32.211Z,48.21
2022-12-22T10:25:02.363Z,48.04
2022-12-22T10:27:38.582Z,48.22
2022-12-22T10:30:20.008Z,48.04
2022-12-22T10:33:03.931Z,47.82
2022-12-22T10:35:50.220Z,47.50
2022-12-22T10:38:22.848Z,47.99
2022-12-22T10:40:59.959Z,47.91
2022-12-22T10:43:34.353Z,48.05
2022-12-22T10:46:03.404Z,48.07
2022-12-22T10:48:34.205Z,47.93
2022-12-22T10:51:04.049Z,48.57
2022-12-22T10:53:44.878Z,48.16
2022-12-22T10:56:22.241Z,48.76
2022-12-22T10:58:54.320Z,48.35
2022-12-22T11:01:28.655Z,49.70
2022-12-22T11:03:57.877Z,48.69
2022-12-22T11:06:26.441Z,48.25
2022-12-22T11:09:05.629Z,49.53
2022-12-22T11:11:48.081Z,49.46
2022-12-22T11:14:26.920Z,49.62
2022-12-22T11:17:01.169Z,50.21
2022-12-22T11:19:42.628Z,49.87
2022-12-22T11:22:20.013Z,50.32
2022-12-22T11:24:58.552Z,50.75
2022-12-22T11:27:33.163Z,51.02
2022-12-22T11:30:08.525Z,50.30
2022-12-22T11:32:55.994Z,50.54
2022-12-22T11:35:38.084Z,50.64
2022-12-22T11:38:14.378Z,51.50
2022-12-22T11:40:45.689Z,52.22
2022-12-22T11:43:24.501Z,50.97
2022-12-22T11:46:32.879Z,50.41
2022-12-22T11:49:34.088Z,50.36
2022-12-22T11:52:14.862Z,51.86
2022-12-22T11:55:18.917Z,50.23
2022-12-22T11:57:58.999Z,50.66
2022-12-22T12:01:03.733Z,50.81
2022-12-22T12:03:44.984Z,50.47
2022-12-22T12:06:28.618Z,50.67
2022-12-22T12:09:08.725Z,50.56
2022-12-22T12:11:41.128Z,50.40
2022-12-22T12:14:20.055Z,51.12
2022-12-22T12:16:53.574Z,51.01
2022-12-22T12:19:36.462Z,50.65
2022-12-22T12:22:06.532Z,50.86
2022-12-22T12:24:42.288Z,50.78
2022-12-22T12:27:23.001Z,50.37
2022-12-22T12:30:36.505Z,50.31
2022-12-22T12:32:54.565Z,50.82
2022-12-22T12:35:46.814Z,50.77
2022-12-22T12:38:47.887Z,50.59
2022-12-22T12:41:13.989Z,50.38
2022-12-22T12:43:43.179Z,50.27
2022-12-22T12:46:45.487Z,50.12
2022-12-22T12:49:51.525Z,50.05
2022-12-22T12:53:15.219Z,51.24
2022-12-22T12:55:58.452Z,51.59
2022-12-22T12:58:55.606Z,50.53
2022-12-22T13:01:58.328Z,51.46
2022-12-22T13:05:12.516Z,51.64
2022-12-22T13:08:11.402Z,50.67
2022-12-22T13:10:43.385Z,51.06
2022-12-22T13:13:13.751Z,51.12
2022-12-22T13:15:45.147Z,51.67
2022-12-22T13:18:44.335Z,50.85
2022-12-22T13:24:25.982Z,52.01
2022-12-22T13:26:56.305Z,51.98
2022-12-22T13:29:29.182Z,52.42
2022-12-22T13:32:01.715Z,51.22
2022-12-22T13:34:57.656Z,51.98
2022-12-22T13:37:29.715Z,51.49
2022-12-22T13:40:30.851Z,51.85
2022-12-22T13:43:02.591Z,52.22
2022-12-22T13:45:34.908Z,52.11
2022-12-22T13:48:07.735Z,52.32
2022-12-22T13:50:38.743Z,51.73
2022-12-22T13:53:09.414Z,52.24
2022-12-22T13:55:39.399Z,51.93
2022-12-22T13:58:17.904Z,52.04
2022-12-22T14:00:46.331Z,52.13
2022-12-22T14:03:41.581Z,52.33
2022-12-22T14:06:20.783Z,53.13
2022-12-22T14:08:49.257Z,53.88
2022-12-22T14:11:19.749Z,53.07
2022-12-22T14:13:48.324Z,52.67
2022-12-22T14:16:17.057Z,52.97
2022-12-22T14:18:46.561Z,53.46
2022-12-22T14:21:15.030Z,53.19
2022-12-22T14:23:44.152Z,53.60
2022-12-22T14:26:18.405Z,54.34
2022-12-22T14:28:50.931Z,53.50
2022-12-22T14:31:20.265Z,53.89
2022-12-22T14:33:53.257Z,54.56
2022-12-22T14:36:24.340Z,54.60
2022-12-22T14:38:54.663Z,54.85
2022-12-22T14:41:44.319Z,53.82
2022-12-22T14:44:16.426Z,54.28
2022-12-22T14:46:45.712Z,54.48
2022-12-22T14:49:19.541Z,54.15
2022-12-22T14:52:00.764Z,54.07
2022-12-22T14:54:30.085Z,54.08
2022-12-22T14:57:03.264Z,53.67
2022-12-22T14:59:35.263Z,53.81
2022-12-22T15:02:19.181Z,53.00
2022-12-22T15:04:47.763Z,53.69
2022-12-22T15:07:54.340Z,53.25
2022-12-22T15:10:17.274Z,53.33
2022-12-22T15:12:46.461Z,53.44
2022-12-22T15:15:19.355Z,52.84
2022-12-22T15:17:50.942Z,53.15
2022-12-22T15:20:21.902Z,53.63
2022-12-22T15:22:50.857Z,52.43
2022-12-22T15:25:21.222Z,53.50
2022-12-22T15:27:50.495Z,53.51
2022-12-22T15:30:28.509Z,54.06
2022-12-22T15:32:57.544Z,53.30
2022-12-22T15:35:29.551Z,53.52
2022-12-22T15:37:58.108Z,53.77
2022-12-22T15:40:27.424Z,53.79
2022-12-22T15:42:56.101Z,54.04
2022-12-22T15:45:26.029Z,53.80
2022-12-22T15:47:55.528Z,53.44
2022-12-22T15:50:26.352Z,53.97
2022-12-22T15:52:56.669Z,53.93
2022-12-22T15:55:25.672Z,53.79
2022-12-22T15:57:57.819Z,54.17
2022-12-22T16:00:27.719Z,54.49
2022-12-22T16:02:57.619Z,54.87
2022-12-22T16:05:26.254Z,54.40
2022-12-22T16:07:54.633Z,54.72
2022-12-22T16:10:26.764Z,54.60
2022-12-22T16:13:00.545Z,54.09
2022-12-22T16:15:32.018Z,54.63
2022-12-22T16:18:01.330Z,54.27
2022-12-22T16:21:27.159Z,53.85
2022-12-22T16:23:55.671Z,54.07
2022-12-22T16:26:24.146Z,54.20
2022-12-22T16:28:52.730Z,54.46
2022-12-22T16:31:24.253Z,54.16
2022-12-22T16:33:53.067Z,54.46
2022-12-22T16:36:21.642Z,54.87
2022-12-22T16:38:50.056Z,54.20
2022-12-22T16:41:24.262Z,54.74
2022-12-22T16:43:53.582Z,54.81
2022-12-22T16:46:24.097Z,54.41
2022-12-22T16:48:54.371Z,54.30
2022-12-22T16:51:25.506Z,53.73
2022-12-22T16:53:54.172Z,53.41
2022-12-22T16:56:24.879Z,53.34
2022-12-22T16:58:53.455Z,53.25
2022-12-22T17:01:31.249Z,53.23
2022-12-22T17:04:03.569Z,53.53
2022-12-22T17:06:32.529Z,52.80
2022-12-22T17:09:01.234Z,52.91
2022-12-22T17:11:31.577Z,52.45
2022-12-22T17:14:18.501Z,52.67
2022-12-22T17:16:48.289Z,52.71
2022-12-22T17:19:17.053Z,52.90
2022-12-22T17:21:45.626Z,53.30
2022-12-22T17:24:15.231Z,52.67
2022-12-22T17:26:43.704Z,52.89
2022-12-22T17:29:15.699Z,52.98
2022-12-22T17:31:44.473Z,52.99
2022-12-22T17:34:18.684Z,53.00
2022-12-22T17:36:48.868Z,52.78
2022-12-22T17:39:19.671Z,52.59
2022-12-22T17:41:55.908Z,53.30
2022-12-22T17:44:26.897Z,53.13
2022-12-22T17:46:55.509Z,52.79
2022-12-22T17:49:25.818Z,53.41
2022-12-22T17:51:54.297Z,52.63
2022-12-22T17:54:24.995Z,52.42
2022-12-22T17:56:56.060Z,52.44
2022-12-22T17:59:24.926Z,52.35
2022-12-22T18:01:53.511Z,52.63
2022-12-22T18:04:22.060Z,52.07
2022-12-22T18:06:51.940Z,52.10
2022-12-22T18:09:22.928Z,52.12
2022-12-22T18:11:51.736Z,52.47
2022-12-22T18:14:22.062Z,51.82
2022-12-22T18:16:53.721Z,52.09
2022-12-22T18:19:22.194Z,52.33
2022-12-22T18:21:52.030Z,52.58
2022-12-22T18:24:21.058Z,52.50
2022-12-22T18:26:49.519Z,52.04
2022-12-22T18:29:18.606Z,52.15
2022-12-22T18:31:47.262Z,51.85
2022-12-22T18:34:15.676Z,52.09
2022-12-22T18:36:45.704Z,52.13
2022-12-22T18:39:18.924Z,51.93
2022-12-22T18:41:47.686Z,52.15
2022-12-22T18:44:16.860Z,52.06
2022-12-22T18:46:45.636Z,52.19
2022-12-22T18:49:14.322Z,52.31
2022-12-22T18:51:43.816Z,52.21
2022-12-22T18:54:23.426Z,52.20
2022-12-22T18:56:52.500Z,51.55
2022-12-22T18:59:25.875Z,52.00
2022-12-22T19:01:58.037Z,51.60
2022-12-22T19:04:26.699Z,51.82
2022-12-22T19:06:55.266Z,51.49
2022-12-22T19:09:27.006Z,51.38
2022-12-22T19:11:55.584Z,51.55
2022-12-22T19:14:24.041Z,51.33
2022-12-22T19:16:52.530Z,51.67
2022-12-22T19:19:22.014Z,52.20
2022-12-22T19:21:50.559Z,51.49
2022-12-22T19:24:18.968Z,51.58
2022-12-22T19:26:48.750Z,51.78
2022-12-22T19:29:18.412Z,51.68
2022-12-22T19:31:46.956Z,52.25
2022-12-22T19:34:18.495Z,51.97
2022-12-22T19:36:47.424Z,52.18
2022-12-22T19:39:18.528Z,51.74
2022-12-22T19:41:50.392Z,52.11
2022-12-22T19:44:22.167Z,51.75
2022-12-22T19:46:50.873Z,51.68
2022-12-22T19:49:21.201Z,51.86
2022-12-22T19:51:51.055Z,52.05
2022-12-22T19:54:20.339Z,51.94
2022-12-22T19:56:53.500Z,51.74
2022-12-22T19:59:29.521Z,51.95
2022-12-22T20:01:58.615Z,51.72
2022-12-22T20:04:27.429Z,51.92
2022-12-22T20:06:55.950Z,51.87
2022-12-22T20:09:24.425Z,51.57
2022-12-22T20:11:54.219Z,51.71
2022-12-22T20:14:22.639Z,51.65
2022-12-22T20:16:51.127Z,51.32
2022-12-22T20:19:22.536Z,51.38
2022-12-22T20:21:51.307Z,51.12
2022-12-22T20:24:22.777Z,51.24
2022-12-22T20:26:54.424Z,51.20
2022-12-22T20:29:26.047Z,51.48
2022-12-22T20:31:54.640Z,51.10
2022-12-22T20:34:23.133Z,51.37
2022-12-22T20:36:51.603Z,50.90
2022-12-22T20:39:20.600Z,50.97
2022-12-22T20:41:53.319Z,50.85
2022-12-22T20:44:23.318Z,51.10
2022-12-22T20:46:53.217Z,51.36
2022-12-22T20:49:21.701Z,51.29
2022-12-22T20:51:50.179Z,51.25
2022-12-22T20:54:18.659Z,51.38
2022-12-22T20:56:47.145Z,50.80
2022-12-22T20:59:18.648Z,50.81
2022-12-22T21:01:47.997Z,50.99
2022-12-22T21:04:18.823Z,51.19
2022-12-22T21:06:51.006Z,50.90
2022-12-22T21:09:20.209Z,51.30
2022-12-22T21:11:49.190Z,50.91
2022-12-22T21:14:17.992Z,51.05
2022-12-22T21:16:46.574Z,51.28
2022-12-22T21:19:19.467Z,51.02
2022-12-22T21:21:48.238Z,51.32
2022-12-22T21:24:18.669Z,51.39
2022-12-22T21:26:49.043Z,51.28
2022-12-22T21:29:20.409Z,50.85
2022-12-22T21:31:48.885Z,51.08
2022-12-22T21:34:20.487Z,51.06
2022-12-22T21:36:51.752Z,51.39
2022-12-22T21:39:30.165Z,50.88
2022-12-22T21:42:01.535Z,51.20
2022-12-22T21:44:30.489Z,51.22
2022-12-22T21:46:59.603Z,50.79
2022-12-22T21:49:30.684Z,50.84
2022-12-22T21:51:59.338Z,50.73
2022-12-22T21:54:28.258Z,51.02
2022-12-22T21:56:57.397Z,50.78
2022-12-22T21:59:25.812Z,51.06
2022-12-22T22:01:54.490Z,51.10
2022-12-22T22:04:23.790Z,50.80
2022-12-22T22:06:53.702Z,51.25
2022-12-22T22:09:22.393Z,51.28
2022-12-22T22:12:08.446Z,50.77
2022-12-22T22:14:37.055Z,50.57
2022-12-22T22:17:05.459Z,51.28
2022-12-22T22:19:34.105Z,50.72
2022-12-22T22:22:03.862Z,50.82
2022-12-22T22:24:32.526Z,50.90
2022-12-22T22:27:00.989Z,50.85
2022-12-22T22:29:29.506Z,50.60
2022-12-22T22:31:57.948Z,51.09
2022-12-22T22:34:26.348Z,50.49
2022-12-22T22:36:54.865Z,51.04
2022-12-22T22:39:25.245Z,50.52
2022-12-22T22:41:53.736Z,51.06
2022-12-22T22:44:22.440Z,50.96
2022-12-22T22:46:50.990Z,50.52
2022-12-22T22:49:24.385Z,51.06
2022-12-22T22:51:58.634Z,50.91
2022-12-22T22:54:28.820Z,51.08
2022-12-22T22:56:57.336Z,50.98
2022-12-22T22:59:25.787Z,50.99
2022-12-22T23:01:54.190Z,50.69
2022-12-22T23:04:23.194Z,51.00
2022-12-22T23:06:52.155Z,50.48
2022-12-22T23:09:23.552Z,51.10
2022-12-22T23:11:53.927Z,50.60
2022-12-22T23:14:23.108Z,50.66
2022-12-22T23:16:51.869Z,50.73
2022-12-22T23:19:21.081Z,50.61
2022-12-22T23:21:49.909Z,50.56
2022-12-22T23:24:20.645Z,50.67
2022-12-22T23:26:49.439Z,50.63
2022-12-22T23:29:19.774Z,50.52
2022-12-22T23:31:48.695Z,50.96
2022-12-22T23:37:04.675Z,50.93
2022-12-22T23:39:33.487Z,50.72
2022-12-22T23:42:02.169Z,50.58
2022-12-22T23:44:31.072Z,50.51
2022-12-22T23:47:00.107Z,50.80
2022-12-22T23:49:28.852Z,51.06
2022-12-22T23:51:57.320Z,50.45
2022-12-22T23:54:29.468Z,50.57
2022-12-22T23:56:58.021Z,50.83
2022-12-22T23:59:26.458Z,50.36
